Time;durP1;ratioP1;P1;durP2;ratioP2;P2;SDS_P1;SDS_P2;PMS_P1;PMS_P2;Temp;Humidity;BMP_temperature;BMP_pressure;BME280_temperature;BME280_humidity;BME280_pressure;Samples;Min_cycle;Max_cycle;Signal;HPM_P1;HPM_P2
2024/02/26 00:02:06;;;;;;;43.13;25.33;;;;;;;;;;5021955;28;20049;-49
2024/02/26 00:04:33;;;;;;;52.17;25.90;;;;;;;;;;5022160;28;20018;-47
2024/02/26 00:07:00;;;;;;;53.17;25.13;;;;;;;;;;5021679;28;20068;-53
2024/02/26 00:09:26;;;;;;;41.70;24.15;;;;;;;;;;5021893;28;20029;-47
2024/02/26 00:11:53;;;;;;;31.90;25.35;;;;;;;;;;5021967;28;20080;-53
2024/02/26 00:14:20;;;;;;;51.55;25.95;;;;;;;;;;5022289;28;20214;-47
2024/02/26 00:16:47;;;;;;;43.38;24.67;;;;;;;;;;5023400;28;20029;-49
2024/02/26 00:19:13;;;;;;;41.90;24.63;;;;;;;;;;5026469;28;20022;-52
2024/02/26 00:21:43;;;;;;;31.48;22.95;;;;;;;;;;5025822;28;20199;-51
2024/02/26 00:24:09;;;;;;;34.65;22.77;;;;;;;;;;5024696;28;20026;-46
2024/02/26 00:26:36;;;;;;;63.85;25.73;;;;;;;;;;5026730;28;20022;-50
2024/02/26 00:29:02;;;;;;;35.15;22.38;;;;;;;;;;5025334;28;20025;-50
2024/02/26 00:31:29;;;;;;;27.88;21.73;;;;;;;;;;5026686;28;20294;-53
2024/02/26 00:33:56;;;;;;;28.35;21.50;;;;;;;;;;5026931;28;20026;-50
2024/02/26 00:36:23;;;;;;;27.60;21.25;;;;;;;;;;5025518;28;20117;-51
2024/02/26 00:38:52;;;;;;;59.00;22.05;;;;;;;;;;5024808;28;20089;-48
2024/02/26 00:41:19;;;;;;;49.08;21.83;;;;;;;;;;5024810;28;20094;-49
2024/02/26 00:43:45;;;;;;;68.28;22.48;;;;;;;;;;5025214;28;20026;-47
2024/02/26 00:46:12;;;;;;;51.17;21.05;;;;;;;;;;5026642;28;20025;-48
2024/02/26 00:48:39;;;;;;;40.80;21.70;;;;;;;;;;5026677;28;20109;-42
2024/02/26 00:51:06;;;;;;;30.73;21.30;;;;;;;;;;5026392;28;20044;-49
2024/02/26 00:53:32;;;;;;;33.75;20.63;;;;;;;;;;5026770;28;20334;-50
2024/02/26 00:55:59;;;;;;;38.58;21.55;;;;;;;;;;5026308;28;20040;-47
2024/02/26 00:58:26;;;;;;;29.10;20.08;;;;;;;;;;5026078;28;20089;-50
2024/02/26 01:00:53;;;;;;;47.25;20.52;;;;;;;;;;5025911;28;20105;-52
2024/02/26 01:03:19;;;;;;;30.15;19.65;;;;;;;;;;5026276;28;20045;-50
2024/02/26 01:05:46;;;;;;;26.27;18.38;;;;;;;;;;5025686;28;20049;-52
2024/02/26 01:08:13;;;;;;;36.25;19.92;;;;;;;;;;5026495;28;20085;-45
2024/02/26 01:10:39;;;;;;;37.45;20.23;;;;;;;;;;5008903;28;20187;-47
2024/02/26 01:13:07;;;;;;;32.22;20.98;;;;;;;;;;5025625;28;20032;-55
2024/02/26 01:15:34;;;;;;;32.05;20.77;;;;;;;;;;5025360;28;20038;-52
2024/02/26 01:18:00;;;;;;;34.35;19.85;;;;;;;;;;5024304;28;20029;-44
2024/02/26 01:20:27;;;;;;;50.47;22.75;;;;;;;;;;5025549;28;20022;-48
2024/02/26 01:22:53;;;;;;;82.68;24.65;;;;;;;;;;5026088;28;20068;-46
2024/02/26 01:25:20;;;;;;;66.10;24.27;;;;;;;;;;5024875;28;20063;-51
2024/02/26 01:27:47;;;;;;;57.50;23.40;;;;;;;;;;5024413;28;20018;-45
2024/02/26 01:30:16;;;;;;;46.00;20.88;;;;;;;;;;5024998;28;20080;-48
2024/02/26 01:32:42;;;;;;;32.55;20.70;;;;;;;;;;5025181;28;20310;-50
2024/02/26 01:35:11;;;;;;;47.75;21.90;;;;;;;;;;5025656;28;20179;-47
2024/02/26 01:37:38;;;;;;;33.80;20.83;;;;;;;;;;5025892;28;20030;-47
2024/02/26 01:40:06;;;;;;;37.22;21.40;;;;;;;;;;5025898;28;20334;-47
2024/02/26 01:42:33;;;;;;;64.88;23.17;;;;;;;;;;5024352;28;20041;-48
2024/02/26 01:45:00;;;;;;;82.93;25.45;;;;;;;;;;5025953;28;20025;-48
2024/02/26 01:47:27;;;;;;;101.50;25.15;;;;;;;;;;5025650;28;20060;-46
2024/02/26 01:49:54;;;;;;;89.47;23.98;;;;;;;;;;5007902;28;20017;-49
2024/02/26 01:52:22;;;;;;;57.30;21.65;;;;;;;;;;5025603;28;20297;-46
2024/02/26 01:54:49;;;;;;;73.90;23.08;;;;;;;;;;5025462;28;20240;-50
2024/02/26 01:57:15;;;;;;;78.05;22.15;;;;;;;;;;5024968;28;20025;-45
2024/02/26 01:59:42;;;;;;;51.90;20.55;;;;;;;;;;5025322;28;20030;-47
2024/02/26 02:02:10;;;;;;;48.90;21.30;;;;;;;;;;5025273;28;20104;-46
2024/02/26 02:04:37;;;;;;;33.83;20.08;;;;;;;;;;5024541;28;20018;-47
2024/02/26 02:07:04;;;;;;;33.17;20.95;;;;;;;;;;5025118;28;20083;-47
2024/02/26 02:09:31;;;;;;;44.05;20.15;;;;;;;;;;5025158;28;20036;-47
2024/02/26 02:11:59;;;;;;;32.40;19.30;;;;;;;;;;5025100;28;20053;-50
2024/02/26 02:14:26;;;;;;;30.10;19.30;;;;;;;;;;5024895;28;20037;-51
2024/02/26 02:16:52;;;;;;;47.28;19.45;;;;;;;;;;5024127;28;20322;-50
2024/02/26 02:19:19;;;;;;;44.90;19.17;;;;;;;;;;5024558;28;20068;-50
2024/02/26 02:21:46;;;;;;;27.08;18.75;;;;;;;;;;5024698;28;20081;-53
2024/02/26 02:24:12;;;;;;;25.58;18.70;;;;;;;;;;5025002;28;20037;-44
2024/02/26 02:26:39;;;;;;;27.23;17.92;;;;;;;;;;5024953;28;20032;-45
2024/02/26 02:29:07;;;;;;;28.38;18.63;;;;;;;;;;5024685;28;20014;-48
2024/02/26 02:31:34;;;;;;;24.92;18.38;;;;;;;;;;5025190;28;20084;-50
2024/02/26 02:34:01;;;;;;;20.17;18.02;;;;;;;;;;5024300;28;20028;-44
2024/02/26 02:36:28;;;;;;;22.85;17.75;;;;;;;;;;5024991;28;20026;-48
2024/02/26 02:38:54;;;;;;;24.00;18.75;;;;;;;;;;5024762;28;20085;-48
2024/02/26 02:41:21;;;;;;;25.90;19.00;;;;;;;;;;5024812;28;20044;-46
2024/02/26 02:43:48;;;;;;;56.70;21.23;;;;;;;;;;5024339;28;20032;-45
2024/02/26 02:46:14;;;;;;;33.33;19.70;;;;;;;;;;5024152;28;20198;-46
2024/02/26 02:48:43;;;;;;;46.20;20.23;;;;;;;;;;5024299;28;20018;-44
2024/02/26 02:51:10;;;;;;;54.63;20.20;;;;;;;;;;5024518;28;20029;-44
2024/02/26 02:53:37;;;;;;;42.28;20.33;;;;;;;;;;5024262;28;20309;-46
2024/02/26 02:56:03;;;;;;;44.10;20.48;;;;;;;;;;5024724;28;20206;-44
2024/02/26 02:58:30;;;;;;;28.67;18.95;;;;;;;;;;5024154;28;20341;-46
2024/02/26 03:00:56;;;;;;;33.60;19.30;;;;;;;;;;5024072;28;20030;-49
2024/02/26 03:03:24;;;;;;;25.52;19.05;;;;;;;;;;5023818;28;20045;-44
2024/02/26 03:05:50;;;;;;;25.60;19.02;;;;;;;;;;5023831;28;20096;-52
2024/02/26 03:08:19;;;;;;;22.95;19.60;;;;;;;;;;5024035;28;20022;-54
2024/02/26 03:10:45;;;;;;;25.27;18.55;;;;;;;;;;5024393;28;20026;-54
2024/02/26 03:13:12;;;;;;;21.38;19.15;;;;;;;;;;5023939;28;20072;-50
2024/02/26 03:15:38;;;;;;;21.77;18.98;;;;;;;;;;5024053;28;20080;-51
2024/02/26 03:18:05;;;;;;;22.63;18.30;;;;;;;;;;5022800;28;20026;-53
2024/02/26 03:20:32;;;;;;;22.20;18.30;;;;;;;;;;5024156;28;20022;-49
2024/02/26 03:22:59;;;;;;;25.23;18.15;;;;;;;;;;5023517;28;20026;-49
2024/02/26 03:25:25;;;;;;;19.45;17.45;;;;;;;;;;5024132;28;20077;-47
2024/02/26 03:27:52;;;;;;;24.48;18.23;;;;;;;;;;5023792;28;20033;-51
2024/02/26 03:30:18;;;;;;;22.55;17.65;;;;;;;;;;5023534;28;20064;-48
2024/02/26 03:32:46;;;;;;;20.92;17.75;;;;;;;;;;5023836;28;20026;-52
2024/02/26 03:35:13;;;;;;;22.85;17.65;;;;;;;;;;5023915;28;20033;-48
2024/02/26 03:37:40;;;;;;;23.13;17.60;;;;;;;;;;5023917;28;20026;-46
2024/02/26 03:40:06;;;;;;;23.88;18.13;;;;;;;;;;5024086;28;20022;-51
2024/02/26 03:42:33;;;;;;;23.98;18.50;;;;;;;;;;5023669;28;20321;-44
2024/02/26 03:45:00;;;;;;;23.38;17.52;;;;;;;;;;5024085;28;20037;-50
2024/02/26 03:47:28;;;;;;;22.98;18.60;;;;;;;;;;5023845;28;20026;-45
2024/02/26 03:49:54;;;;;;;21.20;17.98;;;;;;;;;;5023879;28;20046;-47
2024/02/26 03:52:21;;;;;;;24.42;18.17;;;;;;;;;;5021928;28;20029;-52
2024/02/26 03:54:47;;;;;;;31.60;18.15;;;;;;;;;;5026845;28;20030;-48
2024/02/26 03:57:14;;;;;;;30.48;19.02;;;;;;;;;;5027650;28;20246;-52
2024/02/26 03:59:40;;;;;;;25.70;18.25;;;;;;;;;;5027753;28;20041;-50
2024/02/26 04:02:07;;;;;;;23.58;19.20;;;;;;;;;;5027533;28;20029;-47
2024/02/26 04:04:37;;;;;;;28.42;18.52;;;;;;;;;;5027448;28;20188;-52
2024/02/26 04:07:03;;;;;;;24.50;17.50;;;;;;;;;;5027358;28;20046;-46
2024/02/26 04:09:32;;;;;;;26.08;17.27;;;;;;;;;;5027467;28;20210;-45
2024/02/26 04:11:58;;;;;;;27.88;18.65;;;;;;;;;;5027327;28;20030;-46
2024/02/26 04:14:25;;;;;;;26.30;18.38;;;;;;;;;;5027206;28;20018;-46
2024/02/26 04:16:54;;;;;;;23.58;18.02;;;;;;;;;;5027299;28;20254;-45
2024/02/26 04:19:20;;;;;;;26.13;18.55;;;;;;;;;;5027270;28;20018;-45
2024/02/26 04:21:47;;;;;;;20.63;17.58;;;;;;;;;;5027014;28;20037;-50
2024/02/26 04:24:13;;;;;;;20.35;18.15;;;;;;;;;;5027337;28;20018;-47
2024/02/26 04:26:40;;;;;;;25.73;17.95;;;;;;;;;;5026908;28;20030;-51
2024/02/26 04:29:07;;;;;;;20.77;16.80;;;;;;;;;;5027131;28;20325;-51
2024/02/26 04:31:33;;;;;;;19.10;17.27;;;;;;;;;;5027482;28;20026;-46
2024/02/26 04:34:00;;;;;;;19.38;17.58;;;;;;;;;;5027019;28;20026;-48
2024/02/26 04:36:26;;;;;;;18.55;16.65;;;;;;;;;;5027269;28;20310;-47
2024/02/26 04:38:55;;;;;;;21.70;16.90;;;;;;;;;;5027286;28;20392;-48
2024/02/26 04:41:22;;;;;;;19.50;17.48;;;;;;;;;;5027193;28;20034;-50
2024/02/26 04:43:48;;;;;;;22.23;17.85;;;;;;;;;;5026653;28;20081;-44
2024/02/26 04:46:15;;;;;;;18.90;16.95;;;;;;;;;;5026695;28;20043;-49
2024/02/26 04:48:42;;;;;;;18.55;16.58;;;;;;;;;;5026685;28;20021;-44
2024/02/26 04:51:08;;;;;;;20.33;17.23;;;;;;;;;;5026867;28;20029;-49
2024/02/26 04:53:35;;;;;;;18.33;16.52;;;;;;;;;;5026666;28;20240;-44
2024/02/26 04:56:02;;;;;;;19.70;17.67;;;;;;;;;;5026907;28;20301;-43
2024/02/26 04:58:28;;;;;;;19.63;17.58;;;;;;;;;;5026671;28;20309;-45
2024/02/26 05:00:55;;;;;;;19.77;17.40;;;;;;;;;;5026266;28;20018;-45
2024/02/26 05:03:22;;;;;;;18.13;15.63;;;;;;;;;;5026309;28;20025;-47
2024/02/26 05:05:49;;;;;;;20.13;18.00;;;;;;;;;;5026089;28;20046;-45
2024/02/26 05:08:15;;;;;;;18.70;16.95;;;;;;;;;;5026367;28;20068;-53
2024/02/26 05:10:43;;;;;;;19.92;16.92;;;;;;;;;;5026594;28;20401;-51
2024/02/26 05:13:09;;;;;;;19.05;17.05;;;;;;;;;;5026307;28;20084;-45
2024/02/26 05:15:36;;;;;;;19.05;17.08;;;;;;;;;;5026509;28;20026;-46
2024/02/26 05:18:04;;;;;;;18.00;16.40;;;;;;;;;;5026111;28;20044;-46
2024/02/26 05:20:32;;;;;;;18.92;17.02;;;;;;;;;;5026162;28;20032;-48
2024/02/26 05:22:58;;;;;;;19.25;17.45;;;;;;;;;;5025997;28;20024;-44
2024/02/26 05:25:25;;;;;;;19.10;17.15;;;;;;;;;;5026197;28;20081;-44
2024/02/26 05:27:52;;;;;;;18.73;16.85;;;;;;;;;;5025819;28;20030;-46
2024/02/26 05:30:18;;;;;;;19.00;17.10;;;;;;;;;;5025863;28;20021;-44
2024/02/26 05:32:45;;;;;;;18.73;17.00;;;;;;;;;;5025903;28;20025;-51
2024/02/26 05:35:11;;;;;;;19.23;17.20;;;;;;;;;;5025891;28;20033;-50
2024/02/26 05:37:38;;;;;;;17.88;16.05;;;;;;;;;;5025817;28;20025;-44
2024/02/26 05:40:05;;;;;;;19.33;17.40;;;;;;;;;;5025880;28;20092;-45
2024/02/26 05:42:33;;;;;;;18.88;17.05;;;;;;;;;;5025505;28;20045;-46
2024/02/26 05:45:04;;;;;;;18.30;16.52;;;;;;;;;;5025669;28;20030;-46
2024/02/26 05:47:31;;;;;;;19.60;16.85;;;;;;;;;;5025561;28;20033;-45
2024/02/26 05:49:59;;;;;;;18.27;16.58;;;;;;;;;;5025484;28;20014;-48
2024/02/26 05:52:25;;;;;;;19.10;17.27;;;;;;;;;;5025728;28;20034;-44
2024/02/26 05:54:52;;;;;;;19.85;17.45;;;;;;;;;;5025582;28;20045;-45
2024/02/26 05:57:19;;;;;;;20.23;18.17;;;;;;;;;;5025493;28;20265;-45
2024/02/26 05:59:45;;;;;;;19.45;17.52;;;;;;;;;;5025417;28;20021;-44
2024/02/26 06:02:12;;;;;;;19.20;17.27;;;;;;;;;;5025174;28;20042;-47
2024/02/26 06:04:39;;;;;;;19.77;17.05;;;;;;;;;;5025302;28;20021;-45
2024/02/26 06:07:06;;;;;;;24.58;17.27;;;;;;;;;;5025526;28;20029;-44
2024/02/26 06:09:33;;;;;;;20.52;17.30;;;;;;;;;;5025123;28;20064;-45
2024/02/26 06:11:59;;;;;;;19.85;16.75;;;;;;;;;;5025116;28;20022;-50
2024/02/26 06:14:26;;;;;;;21.63;17.77;;;;;;;;;;5025315;28;20039;-49
2024/02/26 06:16:52;;;;;;;19.75;17.45;;;;;;;;;;5024580;28;20326;-47
2024/02/26 06:19:19;;;;;;;18.60;16.80;;;;;;;;;;5024873;28;20085;-44
2024/02/26 06:21:46;;;;;;;21.83;17.20;;;;;;;;;;5024765;28;20110;-48
2024/02/26 06:24:12;;;;;;;19.33;17.38;;;;;;;;;;5025018;28;20083;-46
2024/02/26 06:26:39;;;;;;;18.75;16.80;;;;;;;;;;5025103;28;20022;-44
2024/02/26 06:29:05;;;;;;;19.77;17.70;;;;;;;;;;5024712;28;20021;-43
2024/02/26 06:31:32;;;;;;;19.90;17.50;;;;;;;;;;5025262;28;20017;-50
2024/02/26 06:33:58;;;;;;;20.00;17.90;;;;;;;;;;5024989;28;20022;-44
2024/02/26 06:36:25;;;;;;;19.77;17.55;;;;;;;;;;5025064;28;20109;-51
2024/02/26 06:38:53;;;;;;;20.45;16.45;;;;;;;;;;5024856;28;20025;-47
2024/02/26 06:41:20;;;;;;;22.90;17.42;;;;;;;;;;5024932;28;20037;-51
2024/02/26 06:43:47;;;;;;;19.02;17.20;;;;;;;;;;5024398;28;20060;-44
2024/02/26 06:46:13;;;;;;;19.02;17.10;;;;;;;;;;5025060;28;20025;-44
2024/02/26 06:48:40;;;;;;;18.58;16.83;;;;;;;;;;5024468;28;20060;-44
2024/02/26 06:51:06;;;;;;;19.27;17.00;;;;;;;;;;5024763;28;20017;-45
2024/02/26 06:53:33;;;;;;;18.52;16.70;;;;;;;;;;5024542;28;20057;-44
2024/02/26 06:55:59;;;;;;;19.05;16.80;;;;;;;;;;5024840;28;20030;-44
2024/02/26 06:58:26;;;;;;;22.17;17.30;;;;;;;;;;5023738;28;20077;-44
2024/02/26 07:00:53;;;;;;;19.70;17.70;;;;;;;;;;5024940;28;20026;-49
2024/02/26 07:03:19;;;;;;;18.95;17.15;;;;;;;;;;5024539;28;20025;-43
2024/02/26 07:05:46;;;;;;;18.98;17.17;;;;;;;;;;5024050;28;20053;-46
2024/02/26 07:08:12;;;;;;;22.27;17.73;;;;;;;;;;5024346;28;20068;-46
2024/02/26 07:10:39;;;;;;;19.00;17.20;;;;;;;;;;5024554;28;20025;-47
2024/02/26 07:13:06;;;;;;;19.48;17.40;;;;;;;;;;5024080;28;20030;-44
2024/02/26 07:15:33;;;;;;;19.67;17.77;;;;;;;;;;5024416;28;20072;-52
2024/02/26 07:18:02;;;;;;;19.13;17.33;;;;;;;;;;5024468;28;20036;-51
2024/02/26 07:20:30;;;;;;;19.30;17.45;;;;;;;;;;5024258;28;20256;-52
2024/02/26 07:22:57;;;;;;;19.27;17.48;;;;;;;;;;5023953;28;20029;-51
2024/02/26 07:25:24;;;;;;;19.40;17.45;;;;;;;;;;5024311;28;20056;-51
2024/02/26 07:27:51;;;;;;;22.00;17.30;;;;;;;;;;5023269;28;20290;-51
2024/02/26 07:30:18;;;;;;;19.13;17.33;;;;;;;;;;5024253;28;20405;-49
2024/02/26 07:32:44;;;;;;;19.65;17.63;;;;;;;;;;5023931;28;20076;-50
2024/02/26 07:35:11;;;;;;;19.20;17.13;;;;;;;;;;5023959;28;20206;-52
2024/02/26 07:37:37;;;;;;;19.83;17.77;;;;;;;;;;5024229;28;20029;-51
2024/02/26 07:40:05;;;;;;;19.65;17.63;;;;;;;;;;5024131;28;20029;-46
2024/02/26 07:42:32;;;;;;;19.35;17.30;;;;;;;;;;5023639;28;20057;-47
2024/02/26 07:44:59;;;;;;;19.23;17.27;;;;;;;;;;5023654;28;20026;-50
2024/02/26 07:47:25;;;;;;;19.65;17.73;;;;;;;;;;5023825;28;20030;-52
2024/02/26 07:49:52;;;;;;;20.52;18.35;;;;;;;;;;5024028;28;20037;-45
2024/02/26 07:52:19;;;;;;;20.90;17.70;;;;;;;;;;5023780;28;20052;-52
2024/02/26 07:54:45;;;;;;;20.48;18.20;;;;;;;;;;5023738;28;20022;-48
2024/02/26 07:57:15;;;;;;;19.77;17.80;;;;;;;;;;5023794;28;20030;-48
2024/02/26 07:59:41;;;;;;;19.85;17.92;;;;;;;;;;5023644;28;20030;-44
2024/02/26 08:02:08;;;;;;;19.85;17.80;;;;;;;;;;5023679;28;20041;-51
2024/02/26 08:04:34;;;;;;;19.48;17.08;;;;;;;;;;5023608;28;20056;-49
2024/02/26 08:07:01;;;;;;;19.38;17.42;;;;;;;;;;5023387;28;20046;-43
2024/02/26 08:09:28;;;;;;;20.25;17.33;;;;;;;;;;5023524;28;20017;-52
2024/02/26 08:11:55;;;;;;;18.83;17.02;;;;;;;;;;5023521;28;20070;-48
2024/02/26 08:14:21;;;;;;;18.63;16.85;;;;;;;;;;5023336;28;20025;-50
2024/02/26 08:16:48;;;;;;;18.85;17.15;;;;;;;;;;5023565;28;20021;-44
2024/02/26 08:19:15;;;;;;;18.88;17.13;;;;;;;;;;5023354;28;20026;-52
2024/02/26 08:21:42;;;;;;;19.75;17.60;;;;;;;;;;5023281;28;20282;-43
2024/02/26 08:24:09;;;;;;;20.90;18.80;;;;;;;;;;5023596;28;20022;-43
2024/02/26 08:26:35;;;;;;;20.50;18.17;;;;;;;;;;5023877;28;20029;-51
2024/02/26 08:29:02;;;;;;;19.35;17.38;;;;;;;;;;5023386;28;20018;-47
2024/02/26 08:31:30;;;;;;;19.38;17.45;;;;;;;;;;5023904;28;20030;-47
2024/02/26 08:33:58;;;;;;;19.83;17.73;;;;;;;;;;5023501;28;20034;-46
2024/02/26 08:36:24;;;;;;;20.15;18.15;;;;;;;;;;5023682;28;20029;-50
2024/02/26 08:38:51;;;;;;;19.58;17.58;;;;;;;;;;5024347;28;20024;-49
2024/02/26 08:41:17;;;;;;;19.90;17.88;;;;;;;;;;5027242;28;20029;-49
2024/02/26 08:43:44;;;;;;;21.45;17.83;;;;;;;;;;5026694;28;20026;-53
2024/02/26 08:46:11;;;;;;;20.75;17.88;;;;;;;;;;5026788;28;20326;-45
2024/02/26 08:48:37;;;;;;;19.55;17.60;;;;;;;;;;5026613;28;20028;-53
2024/02/26 08:51:07;;;;;;;19.10;17.25;;;;;;;;;;5026952;28;20025;-45
2024/02/26 08:53:34;;;;;;;19.85;17.85;;;;;;;;;;5027035;28;20254;-50
2024/02/26 08:56:01;;;;;;;25.30;17.75;;;;;;;;;;5027060;28;20081;-47
2024/02/26 08:58:28;;;;;;;18.60;16.77;;;;;;;;;;5026332;28;20022;-52
2024/02/26 09:00:55;;;;;;;23.25;17.38;;;;;;;;;;5026909;28;20024;-45
2024/02/26 09:03:22;;;;;;;25.17;19.17;;;;;;;;;;5026631;28;20275;-48
2024/02/26 09:05:49;;;;;;;23.65;18.38;;;;;;;;;;5026075;28;20057;-57
2024/02/26 09:08:16;;;;;;;21.83;17.63;;;;;;;;;;5026438;28;20025;-48
2024/02/26 09:10:42;;;;;;;24.10;17.83;;;;;;;;;;5026662;28;20238;-48
2024/02/26 09:13:09;;;;;;;21.88;18.58;;;;;;;;;;5026147;28;20326;-49
2024/02/26 09:15:36;;;;;;;21.77;18.58;;;;;;;;;;5026527;28;20106;-54
2024/02/26 09:18:02;;;;;;;22.73;20.27;;;;;;;;;;5026233;28;20352;-50
2024/02/26 09:20:29;;;;;;;23.35;19.48;;;;;;;;;;5026116;28;20052;-48
2024/02/26 09:22:56;;;;;;;20.90;18.52;;;;;;;;;;5026122;28;20089;-48
2024/02/26 09:25:22;;;;;;;26.48;18.45;;;;;;;;;;5026330;28;20068;-44
2024/02/26 09:27:49;;;;;;;21.17;18.98;;;;;;;;;;5025864;28;20207;-44
2024/02/26 09:30:15;;;;;;;25.00;18.92;;;;;;;;;;5025924;28;20073;-43
2024/02/26 09:32:42;;;;;;;20.45;17.80;;;;;;;;;;5025893;28;20104;-43
2024/02/26 09:35:09;;;;;;;20.42;18.35;;;;;;;;;;5025943;28;20210;-49
2024/02/26 09:37:36;;;;;;;21.42;18.75;;;;;;;;;;5025870;28;20096;-47
2024/02/26 09:40:03;;;;;;;21.10;18.92;;;;;;;;;;5025793;28;20269;-49
2024/02/26 09:42:33;;;;;;;22.20;18.95;;;;;;;;;;5025562;28;20151;-44
2024/02/26 09:45:04;;;;;;;21.08;18.77;;;;;;;;;;5025717;28;20077;-42
2024/02/26 09:47:32;;;;;;;25.42;19.30;;;;;;;;;;5025536;28;20214;-43
2024/02/26 09:50:01;;;;;;;20.88;18.67;;;;;;;;;;5025124;28;20081;-43
2024/02/26 09:52:29;;;;;;;22.23;18.00;;;;;;;;;;5025211;28;20099;-44
2024/02/26 09:54:55;;;;;;;21.13;18.25;;;;;;;;;;5025500;28;20033;-43
2024/02/26 09:57:24;;;;;;;23.55;18.88;;;;;;;;;;5025181;28;20093;-48
2024/02/26 09:59:52;;;;;;;25.55;18.80;;;;;;;;;;5025407;28;20063;-44
2024/02/26 10:02:21;;;;;;;26.58;18.95;;;;;;;;;;5025088;28;20040;-47
2024/02/26 10:04:50;;;;;;;27.25;19.75;;;;;;;;;;5024911;28;20024;-46
2024/02/26 10:07:17;;;;;;;26.17;21.10;;;;;;;;;;5025334;28;20026;-44
2024/02/26 10:09:46;;;;;;;29.55;21.90;;;;;;;;;;5025158;28;20069;-43
2024/02/26 10:12:12;;;;;;;31.70;22.55;;;;;;;;;;5024913;28;20207;-51
2024/02/26 10:14:39;;;;;;;30.60;22.63;;;;;;;;;;5025199;28;20030;-47
2024/02/26 10:17:10;;;;;;;29.65;21.60;;;;;;;;;;5025078;28;20022;-47
2024/02/26 10:19:37;;;;;;;29.65;22.73;;;;;;;;;;5024963;28;20049;-47
2024/02/26 10:22:04;;;;;;;29.90;22.67;;;;;;;;;;5024845;28;20374;-56
2024/02/26 10:24:31;;;;;;;26.20;21.50;;;;;;;;;;5024897;28;20226;-53
2024/02/26 10:26:58;;;;;;;26.33;20.73;;;;;;;;;;5024890;28;20024;-44
2024/02/26 10:29:25;;;;;;;24.13;21.55;;;;;;;;;;5024743;28;20017;-44
2024/02/26 10:31:52;;;;;;;23.60;20.13;;;;;;;;;;5025043;28;20048;-45
2024/02/26 10:34:19;;;;;;;21.95;19.00;;;;;;;;;;5024780;28;20030;-52
2024/02/26 10:36:46;;;;;;;21.63;19.35;;;;;;;;;;5024841;28;20113;-43
2024/02/26 10:39:16;;;;;;;24.67;19.35;;;;;;;;;;5024742;28;20021;-44
2024/02/26 10:41:43;;;;;;;24.55;19.42;;;;;;;;;;5024375;28;20033;-48
2024/02/26 10:44:10;;;;;;;21.75;19.15;;;;;;;;;;5024545;28;20022;-46
2024/02/26 10:46:47;;;;;;;26.05;19.70;;;;;;;;;;5024959;28;20037;-49
2024/02/26 10:49:17;;;;;;;27.35;20.33;;;;;;;;;;5024528;28;20050;-48
2024/02/26 10:51:46;;;;;;;31.80;20.40;;;;;;;;;;5024429;28;20021;-47
2024/02/26 10:54:13;;;;;;;32.00;21.75;;;;;;;;;;5024185;28;20064;-47
2024/02/26 10:56:43;;;;;;;32.45;19.77;;;;;;;;;;5024497;28;20318;-44
2024/02/26 10:59:12;;;;;;;29.02;19.23;;;;;;;;;;5024301;28;20022;-47
2024/02/26 11:01:41;;;;;;;34.05;20.55;;;;;;;;;;5023962;28;20034;-45
2024/02/26 11:04:09;;;;;;;35.28;20.23;;;;;;;;;;5023625;28;20036;-46
2024/02/26 11:06:36;;;;;;;37.58;20.48;;;;;;;;;;5024470;28;20045;-45
2024/02/26 11:09:03;;;;;;;37.30;20.63;;;;;;;;;;5024385;28;20369;-44
2024/02/26 11:11:31;;;;;;;52.42;20.95;;;;;;;;;;5024689;28;20089;-45
2024/02/26 11:13:58;;;;;;;49.75;21.75;;;;;;;;;;5024130;28;20033;-45
2024/02/26 11:16:26;;;;;;;61.08;23.00;;;;;;;;;;5023568;28;20307;-43
2024/02/26 11:18:56;;;;;;;74.80;23.15;;;;;;;;;;5024094;28;20093;-47
2024/02/26 11:21:28;;;;;;;70.30;22.23;;;;;;;;;;5024518;28;20030;-45
2024/02/26 11:23:55;;;;;;;59.60;23.52;;;;;;;;;;5022866;28;20033;-46
2024/02/26 11:26:23;;;;;;;53.63;22.65;;;;;;;;;;5023409;28;20298;-47
2024/02/26 11:28:51;;;;;;;55.65;23.48;;;;;;;;;;5018912;28;20028;-42
2024/02/26 11:31:25;;;;;;;54.05;22.17;;;;;;;;;;5024609;28;20077;-43
2024/02/26 11:33:52;;;;;;;47.83;22.20;;;;;;;;;;5022090;28;20033;-44
2024/02/26 11:36:19;;;;;;;40.63;20.80;;;;;;;;;;5021977;28;20093;-45
2024/02/26 11:38:51;;;;;;;36.88;19.52;;;;;;;;;;5022068;28;20049;-49
2024/02/26 11:41:18;;;;;;;32.08;20.15;;;;;;;;;;5022621;28;20080;-53
2024/02/26 11:43:54;;;;;;;31.25;20.33;;;;;;;;;;5022598;28;20017;-55
2024/02/26 11:46:29;;;;;;;34.72;19.52;;;;;;;;;;5023500;28;20034;-53
2024/02/26 11:49:00;;;;;;;33.67;20.02;;;;;;;;;;5022596;28;20026;-47
2024/02/26 11:51:27;;;;;;;33.00;20.83;;;;;;;;;;5022418;28;20183;-49
2024/02/26 11:53:54;;;;;;;67.85;23.13;;;;;;;;;;5022045;28;20029;-52
2024/02/26 11:56:24;;;;;;;47.47;21.10;;;;;;;;;;5022210;28;20301;-48
2024/02/26 11:59:00;;;;;;;37.30;20.75;;;;;;;;;;5022283;28;20033;-48
2024/02/26 12:01:42;;;;;;;39.63;20.10;;;;;;;;;;5022916;28;20421;-46
2024/02/26 12:04:16;;;;;;;36.70;20.13;;;;;;;;;;5023725;28;20032;-49
2024/02/26 12:07:02;;;;;;;37.83;20.60;;;;;;;;;;5023326;28;20242;-50
2024/02/26 12:09:32;;;;;;;33.88;20.67;;;;;;;;;;5023639;28;20326;-52
2024/02/26 12:11:58;;;;;;;39.22;20.27;;;;;;;;;;5023491;28;20026;-51
2024/02/26 12:14:29;;;;;;;37.05;20.13;;;;;;;;;;5025525;28;20057;-43
2024/02/26 12:16:58;;;;;;;32.28;19.67;;;;;;;;;;5027375;28;20026;-51
2024/02/26 12:19:25;;;;;;;34.00;19.55;;;;;;;;;;5026876;28;20021;-49
2024/02/26 12:21:54;;;;;;;34.70;19.38;;;;;;;;;;5027112;28;20049;-51
2024/02/26 12:24:21;;;;;;;32.25;19.58;;;;;;;;;;5026989;28;20018;-46
2024/02/26 12:26:48;;;;;;;53.13;21.35;;;;;;;;;;5026939;28;20339;-48
2024/02/26 12:29:15;;;;;;;49.05;20.52;;;;;;;;;;5026261;28;20045;-44
2024/02/26 12:31:41;;;;;;;40.58;19.05;;;;;;;;;;5027120;28;20336;-46
2024/02/26 12:34:09;;;;;;;38.70;19.27;;;;;;;;;;5026848;28;20372;-43
2024/02/26 12:36:36;;;;;;;41.90;19.85;;;;;;;;;;5027398;28;20089;-46
2024/02/26 12:39:05;;;;;;;34.30;19.60;;;;;;;;;;5027014;28;20256;-44
2024/02/26 12:41:32;;;;;;;35.90;20.23;;;;;;;;;;5027105;28;20037;-52
2024/02/26 12:43:59;;;;;;;41.90;20.38;;;;;;;;;;5025719;28;20317;-49
2024/02/26 12:46:25;;;;;;;30.63;19.20;;;;;;;;;;5026482;28;20306;-46
2024/02/26 12:48:54;;;;;;;32.45;20.05;;;;;;;;;;5026720;28;20306;-46
2024/02/26 12:51:21;;;;;;;32.53;19.08;;;;;;;;;;5026960;28;20294;-46
2024/02/26 12:53:50;;;;;;;31.92;18.92;;;;;;;;;;5026531;28;20014;-54
2024/02/26 12:56:17;;;;;;;27.10;19.05;;;;;;;;;;5026743;28;20029;-56
2024/02/26 12:58:44;;;;;;;41.72;19.52;;;;;;;;;;5026275;28;20021;-50
2024/02/26 13:01:14;;;;;;;36.35;18.42;;;;;;;;;;5026863;28;20026;-50
2024/02/26 13:03:41;;;;;;;25.63;17.58;;;;;;;;;;5025068;28;20056;-51
2024/02/26 13:06:08;;;;;;;27.17;18.70;;;;;;;;;;5026229;28;20054;-51
2024/02/26 13:08:34;;;;;;;29.02;18.75;;;;;;;;;;5023322;28;20018;-46
2024/02/26 13:11:01;;;;;;;26.73;18.27;;;;;;;;;;5015448;28;20057;-49
2024/02/26 13:13:28;;;;;;;24.35;18.45;;;;;;;;;;5016862;28;20048;-45
2024/02/26 13:16:08;;;;;;;27.35;18.17;;;;;;;;;;5017066;28;20263;-46
2024/02/26 13:18:36;;;;;;;38.15;19.92;;;;;;;;;;5016632;28;20481;-47
2024/02/26 13:21:16;;;;;;;37.67;20.02;;;;;;;;;;5015364;28;20291;-46
2024/02/26 13:23:43;;;;;;;43.78;20.23;;;;;;;;;;5025842;28;20272;-47
2024/02/26 13:26:13;;;;;;;53.80;21.48;;;;;;;;;;5016512;28;20207;-47
2024/02/26 13:28:39;;;;;;;54.97;22.17;;;;;;;;;;5014946;28;20384;-45
2024/02/26 13:31:07;;;;;;;52.38;23.00;;;;;;;;;;5016571;28;20030;-47
2024/02/26 13:33:34;;;;;;;57.63;22.65;;;;;;;;;;5015854;28;20028;-55
2024/02/26 13:36:01;;;;;;;60.22;23.15;;;;;;;;;;5021576;28;20037;-47
2024/02/26 13:38:28;;;;;;;55.47;22.08;;;;;;;;;;5016187;28;20014;-45
2024/02/26 13:40:55;;;;;;;41.20;21.00;;;;;;;;;;5016382;28;20248;-45
2024/02/26 13:43:21;;;;;;;51.45;22.65;;;;;;;;;;5014398;28;20214;-51
2024/02/26 13:45:48;;;;;;;43.47;21.58;;;;;;;;;;5016286;28;20021;-49
2024/02/26 13:48:15;;;;;;;46.67;20.17;;;;;;;;;;5015723;28;20041;-44
2024/02/26 13:50:45;;;;;;;48.13;21.23;;;;;;;;;;5014707;28;20068;-52
2024/02/26 13:53:13;;;;;;;42.90;20.88;;;;;;;;;;5015474;28;20052;-50
2024/02/26 13:55:42;;;;;;;33.15;20.10;;;;;;;;;;5016541;28;20069;-47
2024/02/26 13:58:09;;;;;;;38.05;19.75;;;;;;;;;;5014871;28;20018;-45
2024/02/26 14:00:35;;;;;;;36.08;21.85;;;;;;;;;;5015275;28;20049;-48
2024/02/26 14:03:02;;;;;;;37.03;21.40;;;;;;;;;;5016100;28;20024;-49
2024/02/26 14:05:29;;;;;;;30.60;20.45;;;;;;;;;;5014613;28;20041;-47
2024/02/26 14:07:56;;;;;;;34.17;20.50;;;;;;;;;;5014425;28;20314;-47
2024/02/26 14:10:23;;;;;;;29.08;18.98;;;;;;;;;;5016200;28;20026;-51
2024/02/26 14:12:50;;;;;;;23.13;18.90;;;;;;;;;;5014754;28;20120;-45
2024/02/26 14:15:16;;;;;;;25.15;19.42;;;;;;;;;;5014512;28;20025;-47
2024/02/26 14:17:43;;;;;;;24.60;18.77;;;;;;;;;;5016002;28;20025;-48